sensor_id;sensor_type;location;lat;lon;timestamp;temperature;humidity
39847;DHT22;25517;52.422;10.782;2023-05-07T11:15:07;13.10;99.90
39847;DHT22;25517;52.422;10.782;2023-05-07T11:17:34;13.30;99.90
39847;DHT22;25517;52.422;10.782;2023-05-07T11:20:03;13.40;99.90
39847;DHT22;25517;52.422;10.782;2023-05-07T11:25:02;13.70;99.90
39847;DHT22;25517;52.422;10.782;2023-05-07T11:27:29;13.80;99.90
39847;DHT22;25517;52.422;10.782;2023-05-07T11:29:55;13.80;99.90
39847;DHT22;25517;52.422;10.782;2023-05-07T11:32:31;13.80;99.90
39847;DHT22;25517;52.422;10.782;2023-05-07T11:35:00;14.10;99.90
39847;DHT22;25517;52.422;10.782;2023-05-07T11:39:45;14.30;99.90
39847;DHT22;25517;52.422;10.782;2023-05-07T11:42:49;14.30;99.90
39847;DHT22;25517;52.422;10.782;2023-05-07T11:45:23;14.60;99.90
39847;DHT22;25517;52.422;10.782;2023-05-07T11:47:50;14.60;99.90
39847;DHT22;25517;52.422;10.782;2023-05-07T11:50:16;14.60;99.90
39847;DHT22;25517;52.422;10.782;2023-05-07T11:52:50;14.60;99.90
39847;DHT22;25517;52.422;10.782;2023-05-07T11:55:18;14.60;99.90
39847;DHT22;25517;52.422;10.782;2023-05-07T11:57:45;14.60;99.90
39847;DHT22;25517;52.422;10.782;2023-05-07T12:00:11;14.80;99.90
39847;DHT22;25517;52.422;10.782;2023-05-07T12:02:37;14.90;99.90
39847;DHT22;25517;52.422;10.782;2023-05-07T12:05:02;14.80;99.90
39847;DHT22;25517;52.422;10.782;2023-05-07T12:07:28;14.80;99.90
39847;DHT22;25517;52.422;10.782;2023-05-07T12:09:53;15.00;99.90
39847;DHT22;25517;52.422;10.782;2023-05-07T12:12:19;15.00;99.90
39847;DHT22;25517;52.422;10.782;2023-05-07T12:14:45;15.00;99.90
39847;DHT22;25517;52.422;10.782;2023-05-07T12:17:13;14.80;99.90
39847;DHT22;25517;52.422;10.782;2023-05-07T12:19:40;14.80;99.90
39847;DHT22;25517;52.422;10.782;2023-05-07T12:22:10;15.10;99.90
39847;DHT22;25517;52.422;10.782;2023-05-07T12:24:50;15.40;99.90
39847;DHT22;25517;52.422;10.782;2023-05-07T12:27:21;15.30;99.90
39847;DHT22;25517;52.422;10.782;2023-05-07T12:29:47;15.10;99.90
39847;DHT22;25517;52.422;10.782;2023-05-07T12:32:18;15.10;99.90
39847;DHT22;25517;52.422;10.782;2023-05-07T12:34:44;15.00;99.90
39847;DHT22;25517;52.422;10.782;2023-05-07T12:37:10;14.90;99.90
39847;DHT22;25517;52.422;10.782;2023-05-07T12:39:36;15.30;99.90
39847;DHT22;25517;52.422;10.782;2023-05-07T12:42:01;15.60;99.90
39847;DHT22;25517;52.422;10.782;2023-05-07T12:44:32;15.80;99.90
39847;DHT22;25517;52.422;10.782;2023-05-07T12:47:00;15.50;99.70
39847;DHT22;25517;52.422;10.782;2023-05-07T12:49:27;15.60;99.30
39847;DHT22;25517;52.422;10.782;2023-05-07T12:51:53;16.00;99.90
39847;DHT22;25517;52.422;10.782;2023-05-07T12:54:32;16.10;99.10
39847;DHT22;25517;52.422;10.782;2023-05-07T12:57:06;16.30;98.30
39847;DHT22;25517;52.422;10.782;2023-05-07T12:59:36;16.60;99.30
39847;DHT22;25517;52.422;10.782;2023-05-07T13:02:03;17.00;97.30
39847;DHT22;25517;52.422;10.782;2023-05-07T13:04:28;17.30;96.90
39847;DHT22;25517;52.422;10.782;2023-05-07T13:06:54;17.20;96.80
39847;DHT22;25517;52.422;10.782;2023-05-07T13:09:20;17.60;95.60
39847;DHT22;25517;52.422;10.782;2023-05-07T13:11:45;17.70;95.60
39847;DHT22;25517;52.422;10.782;2023-05-07T13:14:11;18.00;96.10
39847;DHT22;25517;52.422;10.782;2023-05-07T13:16:37;17.90;95.20
39847;DHT22;25517;52.422;10.782;2023-05-07T13:19:02;18.20;95.70
39847;DHT22;25517;52.422;10.782;2023-05-07T13:21:28;18.20;94.70
39847;DHT22;25517;52.422;10.782;2023-05-07T13:23:53;18.30;94.90
39847;DHT22;25517;52.422;10.782;2023-05-07T13:26:19;18.00;94.40
39847;DHT22;25517;52.422;10.782;2023-05-07T13:28:45;17.70;94.80
39847;DHT22;25517;52.422;10.782;2023-05-07T13:31:11;17.60;94.70
39847;DHT22;25517;52.422;10.782;2023-05-07T13:33:37;17.20;94.70
39847;DHT22;25517;52.422;10.782;2023-05-07T13:36:02;16.90;94.90
39847;DHT22;25517;52.422;10.782;2023-05-07T13:38:30;17.10;95.50
39847;DHT22;25517;52.422;10.782;2023-05-07T13:40:56;17.10;95.40
39847;DHT22;25517;52.422;10.782;2023-05-07T13:43:21;16.90;95.60
39847;DHT22;25517;52.422;10.782;2023-05-07T13:45:47;17.00;96.30
39847;DHT22;25517;52.422;10.782;2023-05-07T13:48:12;17.20;95.50
39847;DHT22;25517;52.422;10.782;2023-05-07T13:50:38;17.00;95.00
39847;DHT22;25517;52.422;10.782;2023-05-07T13:53:03;17.10;95.30
39847;DHT22;25517;52.422;10.782;2023-05-07T13:55:29;17.00;94.80
39847;DHT22;25517;52.422;10.782;2023-05-07T13:58:00;17.10;94.60
39847;DHT22;25517;52.422;10.782;2023-05-07T14:00:27;17.00;93.90
39847;DHT22;25517;52.422;10.782;2023-05-07T14:02:53;16.70;94.60
39847;DHT22;25517;52.422;10.782;2023-05-07T14:05:19;16.90;95.20
39847;DHT22;25517;52.422;10.782;2023-05-07T14:07:45;16.70;95.70
39847;DHT22;25517;52.422;10.782;2023-05-07T14:10:11;16.70;95.60
39847;DHT22;25517;52.422;10.782;2023-05-07T14:12:37;16.50;94.80
39847;DHT22;25517;52.422;10.782;2023-05-07T14:15:03;16.60;95.10
39847;DHT22;25517;52.422;10.782;2023-05-07T14:17:28;16.50;95.20
39847;DHT22;25517;52.422;10.782;2023-05-07T14:19:54;16.40;95.30
39847;DHT22;25517;52.422;10.782;2023-05-07T14:22:21;16.50;96.60
39847;DHT22;25517;52.422;10.782;2023-05-07T14:24:47;16.70;95.70
39847;DHT22;25517;52.422;10.782;2023-05-07T14:27:12;16.90;95.80
39847;DHT22;25517;52.422;10.782;2023-05-07T14:29:38;16.80;95.40
39847;DHT22;25517;52.422;10.782;2023-05-07T14:32:03;17.10;94.70
39847;DHT22;25517;52.422;10.782;2023-05-07T14:34:29;17.20;94.10
39847;DHT22;25517;52.422;10.782;2023-05-07T14:36:55;17.00;95.00
39847;DHT22;25517;52.422;10.782;2023-05-07T14:39:21;17.10;94.50
39847;DHT22;25517;52.422;10.782;2023-05-07T14:41:47;17.20;94.50
39847;DHT22;25517;52.422;10.782;2023-05-07T14:44:13;17.10;94.90
39847;DHT22;25517;52.422;10.782;2023-05-07T14:46:38;17.00;93.90
39847;DHT22;25517;52.422;10.782;2023-05-07T14:49:04;17.00;95.00
39847;DHT22;25517;52.422;10.782;2023-05-07T14:51:30;17.00;95.30
39847;DHT22;25517;52.422;10.782;2023-05-07T14:53:56;17.30;95.70
39847;DHT22;25517;52.422;10.782;2023-05-07T14:56:21;17.40;94.40
39847;DHT22;25517;52.422;10.782;2023-05-07T14:58:47;17.50;94.30
39847;DHT22;25517;52.422;10.782;2023-05-07T15:01:16;17.60;93.80
39847;DHT22;25517;52.422;10.782;2023-05-07T15:03:41;17.20;93.30
39847;DHT22;25517;52.422;10.782;2023-05-07T15:06:07;17.20;94.50
39847;DHT22;25517;52.422;10.782;2023-05-07T15:08:32;17.00;94.00
39847;DHT22;25517;52.422;10.782;2023-05-07T15:10:58;17.00;94.80
39847;DHT22;25517;52.422;10.782;2023-05-07T15:13:24;17.10;94.90
39847;DHT22;25517;52.422;10.782;2023-05-07T15:15:49;17.40;94.60
39847;DHT22;25517;52.422;10.782;2023-05-07T15:18:15;17.40;94.10
39847;DHT22;25517;52.422;10.782;2023-05-07T15:20:41;17.20;94.30
39847;DHT22;25517;52.422;10.782;2023-05-07T15:23:08;17.10;94.40
39847;DHT22;25517;52.422;10.782;2023-05-07T15:25:40;17.00;94.10
39847;DHT22;25517;52.422;10.782;2023-05-07T15:28:06;16.80;94.60
39847;DHT22;25517;52.422;10.782;2023-05-07T15:30:32;16.90;96.10
39847;DHT22;25517;52.422;10.782;2023-05-07T15:32:58;16.90;95.50
39847;DHT22;25517;52.422;10.782;2023-05-07T15:35:23;17.10;95.40
39847;DHT22;25517;52.422;10.782;2023-05-07T15:37:51;17.40;94.80
39847;DHT22;25517;52.422;10.782;2023-05-07T15:40:16;17.60;94.00
39847;DHT22;25517;52.422;10.782;2023-05-07T15:42:44;17.40;93.60
39847;DHT22;25517;52.422;10.782;2023-05-07T15:45:09;17.10;94.20
39847;DHT22;25517;52.422;10.782;2023-05-07T15:47:36;16.90;94.50
39847;DHT22;25517;52.422;10.782;2023-05-07T15:50:02;16.80;94.50
39847;DHT22;25517;52.422;10.782;2023-05-07T15:52:28;16.70;94.90
39847;DHT22;25517;52.422;10.782;2023-05-07T15:54:54;16.60;94.70
39847;DHT22;25517;52.422;10.782;2023-05-07T15:57:21;16.50;94.80
39847;DHT22;25517;52.422;10.782;2023-05-07T15:59:46;16.30;95.30
39847;DHT22;25517;52.422;10.782;2023-05-07T16:02:12;16.10;94.80
39847;DHT22;25517;52.422;10.782;2023-05-07T16:04:38;16.00;95.90
39847;DHT22;25517;52.422;10.782;2023-05-07T16:07:04;16.00;95.50
39847;DHT22;25517;52.422;10.782;2023-05-07T16:09:29;15.90;95.10
39847;DHT22;25517;52.422;10.782;2023-05-07T16:11:55;15.90;95.30
39847;DHT22;25517;52.422;10.782;2023-05-07T16:14:21;15.90;94.90
39847;DHT22;25517;52.422;10.782;2023-05-07T16:16:47;16.00;95.60
39847;DHT22;25517;52.422;10.782;2023-05-07T16:19:12;16.00;95.50
39847;DHT22;25517;52.422;10.782;2023-05-07T16:21:39;15.70;96.00
39847;DHT22;25517;52.422;10.782;2023-05-07T16:24:05;15.80;96.10
39847;DHT22;25517;52.422;10.782;2023-05-07T16:26:31;16.00;95.40
39847;DHT22;25517;52.422;10.782;2023-05-07T16:28:56;16.20;95.50
39847;DHT22;25517;52.422;10.782;2023-05-07T16:31:22;15.90;95.70
39847;DHT22;25517;52.422;10.782;2023-05-07T16:33:47;16.00;96.10
39847;DHT22;25517;52.422;10.782;2023-05-07T16:36:13;15.90;96.30
39847;DHT22;25517;52.422;10.782;2023-05-07T16:38:38;16.00;95.90
39847;DHT22;25517;52.422;10.782;2023-05-07T16:41:04;15.60;95.90
39847;DHT22;25517;52.422;10.782;2023-05-07T16:43:30;15.80;96.10
39847;DHT22;25517;52.422;10.782;2023-05-07T16:45:56;15.50;96.50
39847;DHT22;25517;52.422;10.782;2023-05-07T16:48:21;15.60;96.80
39847;DHT22;25517;52.422;10.782;2023-05-07T16:50:47;15.60;96.70
39847;DHT22;25517;52.422;10.782;2023-05-07T16:53:13;15.60;96.10
39847;DHT22;25517;52.422;10.782;2023-05-07T16:55:39;15.50;96.20
39847;DHT22;25517;52.422;10.782;2023-05-07T16:58:06;15.40;96.50
39847;DHT22;25517;52.422;10.782;2023-05-07T17:00:32;15.40;96.50
39847;DHT22;25517;52.422;10.782;2023-05-07T17:02:58;15.40;97.00
39847;DHT22;25517;52.422;10.782;2023-05-07T17:05:24;15.40;97.00
39847;DHT22;25517;52.422;10.782;2023-05-07T17:07:49;15.40;97.00
39847;DHT22;25517;52.422;10.782;2023-05-07T17:10:16;15.30;97.20
39847;DHT22;25517;52.422;10.782;2023-05-07T17:12:42;15.30;97.40
39847;DHT22;25517;52.422;10.782;2023-05-07T17:15:08;15.20;98.10
39847;DHT22;25517;52.422;10.782;2023-05-07T17:17:34;15.10;97.70
39847;DHT22;25517;52.422;10.782;2023-05-07T17:20:00;15.00;98.60
39847;DHT22;25517;52.422;10.782;2023-05-07T17:22:25;14.80;98.40
39847;DHT22;25517;52.422;10.782;2023-05-07T17:24:51;14.80;98.80
39847;DHT22;25517;52.422;10.782;2023-05-07T17:27:17;14.80;98.10
39847;DHT22;25517;52.422;10.782;2023-05-07T17:29:42;14.80;98.70
39847;DHT22;25517;52.422;10.782;2023-05-07T17:32:08;14.60;98.70
39847;DHT22;25517;52.422;10.782;2023-05-07T17:34:33;14.50;99.20
39847;DHT22;25517;52.422;10.782;2023-05-07T17:36:59;14.40;99.60
39847;DHT22;25517;52.422;10.782;2023-05-07T17:39:25;14.30;99.90
39847;DHT22;25517;52.422;10.782;2023-05-07T17:41:50;14.30;99.90
39847;DHT22;25517;52.422;10.782;2023-05-07T17:44:16;14.30;99.90
39847;DHT22;25517;52.422;10.782;2023-05-07T17:46:42;14.10;99.90
39847;DHT22;25517;52.422;10.782;2023-05-07T17:49:08;14.10;99.90
39847;DHT22;25517;52.422;10.782;2023-05-07T17:51:33;14.10;99.90
39847;DHT22;25517;52.422;10.782;2023-05-07T17:53:59;14.10;99.90
39847;DHT22;25517;52.422;10.782;2023-05-07T17:56:24;14.00;99.90
39847;DHT22;25517;52.422;10.782;2023-05-07T17:58:50;13.90;99.90
39847;DHT22;25517;52.422;10.782;2023-05-07T18:01:15;13.80;99.90
39847;DHT22;25517;52.422;10.782;2023-05-07T18:03:41;13.70;99.90
39847;DHT22;25517;52.422;10.782;2023-05-07T18:06:07;13.70;99.90
39847;DHT22;25517;52.422;10.782;2023-05-07T18:08:33;13.70;99.90
39847;DHT22;25517;52.422;10.782;2023-05-07T18:10:59;13.60;99.90
39847;DHT22;25517;52.422;10.782;2023-05-07T18:13:25;13.60;99.90
39847;DHT22;25517;52.422;10.782;2023-05-07T18:15:50;13.50;99.90
39847;DHT22;25517;52.422;10.782;2023-05-07T18:18:16;13.40;99.90
39847;DHT22;25517;52.422;10.782;2023-05-07T18:20:48;13.30;99.90
39847;DHT22;25517;52.422;10.782;2023-05-07T18:23:15;13.20;99.90
39847;DHT22;25517;52.422;10.782;2023-05-07T18:25:40;13.20;99.90
39847;DHT22;25517;52.422;10.782;2023-05-07T18:28:06;13.10;99.90
39847;DHT22;25517;52.422;10.782;2023-05-07T18:30:31;13.10;99.90
39847;DHT22;25517;52.422;10.782;2023-05-07T18:32:57;13.00;99.90
39847;DHT22;25517;52.422;10.782;2023-05-07T18:35:22;12.80;99.90
39847;DHT22;25517;52.422;10.782;2023-05-07T18:37:48;12.80;99.90
39847;DHT22;25517;52.422;10.782;2023-05-07T18:40:13;12.70;99.90
39847;DHT22;25517;52.422;10.782;2023-05-07T18:42:39;12.60;99.90
39847;DHT22;25517;52.422;10.782;2023-05-07T18:45:05;12.60;99.90
39847;DHT22;25517;52.422;10.782;2023-05-07T18:47:30;12.60;99.90
39847;DHT22;25517;52.422;10.782;2023-05-07T18:49:56;12.50;99.90
39847;DHT22;25517;52.422;10.782;2023-05-07T18:52:21;12.40;99.90
39847;DHT22;25517;52.422;10.782;2023-05-07T18:54:47;12.40;99.90
39847;DHT22;25517;52.422;10.782;2023-05-07T18:57:13;12.40;99.90
39847;DHT22;25517;52.422;10.782;2023-05-07T18:59:38;12.40;99.90
39847;DHT22;25517;52.422;10.782;2023-05-07T19:02:04;12.30;99.90
39847;DHT22;25517;52.422;10.782;2023-05-07T19:04:30;12.30;99.90
39847;DHT22;25517;52.422;10.782;2023-05-07T19:06:55;12.20;99.90
39847;DHT22;25517;52.422;10.782;2023-05-07T19:09:21;12.10;99.90
39847;DHT22;25517;52.422;10.782;2023-05-07T19:11:46;12.10;99.90
39847;DHT22;25517;52.422;10.782;2023-05-07T19:14:12;12.10;99.90
39847;DHT22;25517;52.422;10.782;2023-05-07T19:16:38;12.00;99.90
39847;DHT22;25517;52.422;10.782;2023-05-07T19:19:03;11.90;99.90
39847;DHT22;25517;52.422;10.782;2023-05-07T19:21:29;11.90;99.90
39847;DHT22;25517;52.422;10.782;2023-05-07T19:23:56;11.80;99.90
39847;DHT22;25517;52.422;10.782;2023-05-07T19:26:22;11.80;99.90
39847;DHT22;25517;52.422;10.782;2023-05-07T19:28:48;11.80;99.90
39847;DHT22;25517;52.422;10.782;2023-05-07T19:31:21;11.70;99.90
39847;DHT22;25517;52.422;10.782;2023-05-07T19:33:47;11.70;99.90
39847;DHT22;25517;52.422;10.782;2023-05-07T19:36:13;11.60;99.90
39847;DHT22;25517;52.422;10.782;2023-05-07T19:38:39;11.60;99.90
39847;DHT22;25517;52.422;10.782;2023-05-07T19:41:05;11.50;99.90
39847;DHT22;25517;52.422;10.782;2023-05-07T19:43:30;11.50;99.90
39847;DHT22;25517;52.422;10.782;2023-05-07T19:46:01;11.50;99.90
39847;DHT22;25517;52.422;10.782;2023-05-07T19:48:26;11.50;99.90
39847;DHT22;25517;52.422;10.782;2023-05-07T19:50:52;11.40;99.90
39847;DHT22;25517;52.422;10.782;2023-05-07T19:53:17;11.40;99.90
39847;DHT22;25517;52.422;10.782;2023-05-07T19:55:43;11.30;99.90
39847;DHT22;25517;52.422;10.782;2023-05-07T19:58:08;11.30;99.90
39847;DHT22;25517;52.422;10.782;2023-05-07T20:00:34;11.20;99.90
39847;DHT22;25517;52.422;10.782;2023-05-07T20:03:00;11.10;99.90
39847;DHT22;25517;52.422;10.782;2023-05-07T20:05:26;11.10;99.90
39847;DHT22;25517;52.422;10.782;2023-05-07T20:07:53;11.10;99.90
39847;DHT22;25517;52.422;10.782;2023-05-07T20:10:19;11.00;99.90
39847;DHT22;25517;52.422;10.782;2023-05-07T20:12:45;11.00;99.90
39847;DHT22;25517;52.422;10.782;2023-05-07T20:15:11;11.00;99.90
39847;DHT22;25517;52.422;10.782;2023-05-07T20:17:36;10.90;99.90
39847;DHT22;25517;52.422;10.782;2023-05-07T20:20:02;10.90;99.90
39847;DHT22;25517;52.422;10.782;2023-05-07T20:22:31;10.80;99.90
39847;DHT22;25517;52.422;10.782;2023-05-07T20:24:57;10.80;99.90
39847;DHT22;25517;52.422;10.782;2023-05-07T20:27:23;10.70;99.90
39847;DHT22;25517;52.422;10.782;2023-05-07T20:29:51;10.70;99.90
39847;DHT22;25517;52.422;10.782;2023-05-07T20:32:17;10.60;99.90
39847;DHT22;25517;52.422;10.782;2023-05-07T20:34:45;10.60;99.90
39847;DHT22;25517;52.422;10.782;2023-05-07T20:37:12;10.50;99.90
39847;DHT22;25517;52.422;10.782;2023-05-07T20:39:39;10.50;99.90
39847;DHT22;25517;52.422;10.782;2023-05-07T20:42:05;10.50;99.90
39847;DHT22;25517;52.422;10.782;2023-05-07T20:44:32;10.50;99.90
39847;DHT22;25517;52.422;10.782;2023-05-07T20:46:58;10.40;99.90
39847;DHT22;25517;52.422;10.782;2023-05-07T20:49:23;10.40;99.90
39847;DHT22;25517;52.422;10.782;2023-05-07T20:51:49;10.30;99.90
39847;DHT22;25517;52.422;10.782;2023-05-07T20:54:16;10.30;99.90
39847;DHT22;25517;52.422;10.782;2023-05-07T20:56:41;10.20;99.90
39847;DHT22;25517;52.422;10.782;2023-05-07T20:59:07;10.20;99.90
39847;DHT22;25517;52.422;10.782;2023-05-07T21:01:32;10.20;99.90
39847;DHT22;25517;52.422;10.782;2023-05-07T21:03:58;10.10;99.90
39847;DHT22;25517;52.422;10.782;2023-05-07T21:06:24;10.10;99.90
39847;DHT22;25517;52.422;10.782;2023-05-07T21:08:50;10.00;99.90
39847;DHT22;25517;52.422;10.782;2023-05-07T21:11:15;10.10;99.90
39847;DHT22;25517;52.422;10.782;2023-05-07T21:13:42;10.00;99.90
39847;DHT22;25517;52.422;10.782;2023-05-07T21:16:08;10.00;99.90
39847;DHT22;25517;52.422;10.782;2023-05-07T21:18:34;10.00;99.90
39847;DHT22;25517;52.422;10.782;2023-05-07T21:21:00;9.90;99.90
39847;DHT22;25517;52.422;10.782;2023-05-07T21:23:25;9.90;99.90
39847;DHT22;25517;52.422;10.782;2023-05-07T21:25:51;9.90;99.90
39847;DHT22;25517;52.422;10.782;2023-05-07T21:28:16;9.80;99.90
39847;DHT22;25517;52.422;10.782;2023-05-07T21:30:42;9.80;99.90
39847;DHT22;25517;52.422;10.782;2023-05-07T21:33:07;9.80;99.90
39847;DHT22;25517;52.422;10.782;2023-05-07T21:35:34;9.80;99.90
39847;DHT22;25517;52.422;10.782;2023-05-07T21:38:00;9.70;99.90
39847;DHT22;25517;52.422;10.782;2023-05-07T21:40:27;9.70;99.90
39847;DHT22;25517;52.422;10.782;2023-05-07T21:42:52;9.60;99.90
39847;DHT22;25517;52.422;10.782;2023-05-07T21:45:18;9.70;99.90
39847;DHT22;25517;52.422;10.782;2023-05-07T21:47:44;9.70;99.90
39847;DHT22;25517;52.422;10.782;2023-05-07T21:50:10;9.70;99.90
39847;DHT22;25517;52.422;10.782;2023-05-07T21:52:36;9.60;99.90
39847;DHT22;25517;52.422;10.782;2023-05-07T21:55:02;9.60;99.90
39847;DHT22;25517;52.422;10.782;2023-05-07T21:57:28;9.50;99.90
39847;DHT22;25517;52.422;10.782;2023-05-07T21:59:54;9.50;99.90
39847;DHT22;25517;52.422;10.782;2023-05-07T22:02:19;9.50;99.90
39847;DHT22;25517;52.422;10.782;2023-05-07T22:04:45;9.50;99.90
39847;DHT22;25517;52.422;10.782;2023-05-07T22:07:10;9.40;99.90
39847;DHT22;25517;52.422;10.782;2023-05-07T22:09:36;9.40;99.90
39847;DHT22;25517;52.422;10.782;2023-05-07T22:12:01;9.40;99.90
39847;DHT22;25517;52.422;10.782;2023-05-07T22:14:27;9.40;99.90
39847;DHT22;25517;52.422;10.782;2023-05-07T22:16:53;9.40;99.90
39847;DHT22;25517;52.422;10.782;2023-05-07T22:19:18;9.30;99.90
39847;DHT22;25517;52.422;10.782;2023-05-07T22:21:44;9.40;99.90
39847;DHT22;25517;52.422;10.782;2023-05-07T22:24:09;9.40;99.90
39847;DHT22;25517;52.422;10.782;2023-05-07T22:26:35;9.30;99.90
39847;DHT22;25517;52.422;10.782;2023-05-07T22:29:01;9.30;99.90
39847;DHT22;25517;52.422;10.782;2023-05-07T22:31:27;9.30;99.90
39847;DHT22;25517;52.422;10.782;2023-05-07T22:33:52;9.30;99.90
39847;DHT22;25517;52.422;10.782;2023-05-07T22:36:18;9.20;99.90
39847;DHT22;25517;52.422;10.782;2023-05-07T22:38:43;9.20;99.90
39847;DHT22;25517;52.422;10.782;2023-05-07T22:41:09;9.20;99.90
39847;DHT22;25517;52.422;10.782;2023-05-07T22:43:35;9.20;99.90
39847;DHT22;25517;52.422;10.782;2023-05-07T22:46:00;9.10;99.90
39847;DHT22;25517;52.422;10.782;2023-05-07T22:48:27;9.20;99.90
39847;DHT22;25517;52.422;10.782;2023-05-07T22:50:53;9.10;99.90
39847;DHT22;25517;52.422;10.782;2023-05-07T22:53:19;9.10;99.90
39847;DHT22;25517;52.422;10.782;2023-05-07T22:55:45;9.10;99.90
39847;DHT22;25517;52.422;10.782;2023-05-07T22:58:10;9.10;99.90
39847;DHT22;25517;52.422;10.782;2023-05-07T23:00:36;9.00;99.90
39847;DHT22;25517;52.422;10.782;2023-05-07T23:03:01;9.00;99.90
39847;DHT22;25517;52.422;10.782;2023-05-07T23:05:27;9.00;99.90
39847;DHT22;25517;52.422;10.782;2023-05-07T23:07:52;8.90;99.90
39847;DHT22;25517;52.422;10.782;2023-05-07T23:10:18;8.90;99.90
39847;DHT22;25517;52.422;10.782;2023-05-07T23:12:44;8.90;99.90
39847;DHT22;25517;52.422;10.782;2023-05-07T23:15:17;8.80;99.90
39847;DHT22;25517;52.422;10.782;2023-05-07T23:17:44;8.90;99.90
39847;DHT22;25517;52.422;10.782;2023-05-07T23:20:11;8.80;99.90
39847;DHT22;25517;52.422;10.782;2023-05-07T23:22:37;8.80;99.90
39847;DHT22;25517;52.422;10.782;2023-05-07T23:25:03;8.70;99.90
39847;DHT22;25517;52.422;10.782;2023-05-07T23:27:29;8.70;99.90
39847;DHT22;25517;52.422;10.782;2023-05-07T23:29:55;8.70;99.90
39847;DHT22;25517;52.422;10.782;2023-05-07T23:32:21;8.70;99.90
39847;DHT22;25517;52.422;10.782;2023-05-07T23:34:49;8.70;99.90
39847;DHT22;25517;52.422;10.782;2023-05-07T23:37:15;8.60;99.90
39847;DHT22;25517;52.422;10.782;2023-05-07T23:39:41;8.60;99.90
39847;DHT22;25517;52.422;10.782;2023-05-07T23:42:06;8.60;99.90
39847;DHT22;25517;52.422;10.782;2023-05-07T23:44:32;8.50;99.90
39847;DHT22;25517;52.422;10.782;2023-05-07T23:46:58;8.50;99.90
39847;DHT22;25517;52.422;10.782;2023-05-07T23:49:23;8.50;99.90
39847;DHT22;25517;52.422;10.782;2023-05-07T23:51:49;8.50;99.90
39847;DHT22;25517;52.422;10.782;2023-05-07T23:54:14;8.40;99.90
39847;DHT22;25517;52.422;10.782;2023-05-07T23:56:40;8.40;99.90
39847;DHT22;25517;52.422;10.782;2023-05-07T23:59:05;8.30;99.90
